createdAt,value
2023-11-22T00:01:53.541Z,4.21
2023-11-22T00:04:26.187Z,4.17
2023-11-22T00:06:58.290Z,4.12
2023-11-22T00:09:31.041Z,4.16
2023-11-22T00:12:03.826Z,4.20
2023-11-22T00:14:36.376Z,4.20
2023-11-22T00:17:08.820Z,4.20
2023-11-22T00:19:41.447Z,4.16
2023-11-22T00:22:14.770Z,4.08
2023-11-22T00:24:51.484Z,4.12
2023-11-22T00:27:24.473Z,4.16
2023-11-22T00:29:56.855Z,4.09
2023-11-22T00:32:28.939Z,4.15
2023-11-22T00:35:01.186Z,4.11
2023-11-22T00:37:33.385Z,4.06
2023-11-22T00:40:11.797Z,4.09
2023-11-22T00:42:44.380Z,4.08
2023-11-22T00:45:16.471Z,4.15
2023-11-22T00:47:49.251Z,4.11
2023-11-22T00:50:21.882Z,4.16
2023-11-22T00:52:54.916Z,3.96
2023-11-22T00:55:28.129Z,4.05
2023-11-22T00:58:05.197Z,4.01
2023-11-22T01:00:37.258Z,4.05
2023-11-22T01:03:13.238Z,3.88
2023-11-22T01:05:47.782Z,3.89
2023-11-22T01:08:20.253Z,3.79
2023-11-22T01:10:52.643Z,3.97
2023-11-22T01:13:24.649Z,3.89
2023-11-22T01:15:56.939Z,3.92
2023-11-22T01:18:29.749Z,3.85
2023-11-22T01:21:01.823Z,3.82
2023-11-22T01:23:34.118Z,3.73
2023-11-22T01:26:06.707Z,3.81
2023-11-22T01:28:38.781Z,3.73
2023-11-22T01:31:10.926Z,3.68
2023-11-22T01:33:42.998Z,3.50
2023-11-22T01:36:16.359Z,3.51
2023-11-22T01:38:48.543Z,3.42
2023-11-22T01:41:20.857Z,3.56
2023-11-22T01:43:52.827Z,3.57
2023-11-22T01:46:27.484Z,3.38
2023-11-22T01:48:59.625Z,3.60
2023-11-22T01:51:32.216Z,3.51
2023-11-22T01:54:04.540Z,3.53
2023-11-22T01:56:39.860Z,3.50
2023-11-22T01:59:12.042Z,3.45
2023-11-22T02:01:44.614Z,3.49
2023-11-22T02:04:17.277Z,3.57
2023-11-22T02:06:51.350Z,3.47
2023-11-22T02:09:23.427Z,3.50
2023-11-22T02:11:55.485Z,3.50
2023-11-22T02:14:27.527Z,3.49
2023-11-22T02:17:00.087Z,3.52
2023-11-22T02:19:32.619Z,3.47
2023-11-22T02:22:04.925Z,3.53
2023-11-22T02:24:36.883Z,3.49
2023-11-22T02:27:10.025Z,3.51
2023-11-22T02:29:42.519Z,3.37
2023-11-22T02:32:15.815Z,3.25
2023-11-22T02:34:48.299Z,3.34
2023-11-22T02:37:20.428Z,3.34
2023-11-22T02:40:02.815Z,3.33
2023-11-22T02:42:34.784Z,3.30
2023-11-22T02:45:08.247Z,3.40
2023-11-22T02:47:41.123Z,3.33
2023-11-22T02:50:13.777Z,3.33
2023-11-22T02:52:45.921Z,3.31
2023-11-22T02:55:18.324Z,3.34
2023-11-22T02:57:50.492Z,3.31
2023-11-22T03:00:23.559Z,3.26
2023-11-22T03:02:57.448Z,3.39
2023-11-22T03:05:29.917Z,3.31
2023-11-22T03:08:02.559Z,3.19
2023-11-22T03:10:34.697Z,3.23
2023-11-22T03:13:06.687Z,3.17
2023-11-22T03:15:38.833Z,3.22
2023-11-22T03:18:12.345Z,3.22
2023-11-22T03:20:44.623Z,3.17
2023-11-22T03:23:18.385Z,3.11
2023-11-22T03:25:50.584Z,3.11
2023-11-22T03:28:23.660Z,3.10
2023-11-22T03:30:55.794Z,2.98
2023-11-22T03:33:27.939Z,2.90
2023-11-22T03:36:00.298Z,2.97
2023-11-22T03:38:32.476Z,2.99
2023-11-22T03:41:04.572Z,2.88
2023-11-22T03:43:37.956Z,2.77
2023-11-22T03:46:10.937Z,2.96
2023-11-22T03:48:43.026Z,2.95
2023-11-22T03:51:15.052Z,2.96
2023-11-22T03:53:47.139Z,2.95
2023-11-22T03:56:19.163Z,2.96
2023-11-22T03:58:51.589Z,2.99
2023-11-22T04:01:24.056Z,3.03
2023-11-22T04:03:56.129Z,3.06
2023-11-22T04:06:29.132Z,2.99
2023-11-22T04:09:02.709Z,2.96
2023-11-22T04:11:35.465Z,3.02
2023-11-22T04:14:07.708Z,2.96
2023-11-22T04:16:40.268Z,2.95
2023-11-22T04:19:12.650Z,2.96
2023-11-22T04:21:45.649Z,2.88
2023-11-22T04:24:18.859Z,2.97
2023-11-22T04:26:51.031Z,3.04
2023-11-22T04:29:23.239Z,2.97
2023-11-22T04:31:56.144Z,2.84
2023-11-22T04:34:28.420Z,2.84
2023-11-22T04:37:00.508Z,2.89
2023-11-22T04:39:32.693Z,2.86
2023-11-22T04:42:04.884Z,2.90
2023-11-22T04:44:36.982Z,2.87
2023-11-22T04:47:09.378Z,2.81
2023-11-22T04:49:42.251Z,2.90
2023-11-22T04:52:14.738Z,2.81
2023-11-22T04:54:46.716Z,2.81
2023-11-22T04:57:18.843Z,2.78
2023-11-22T04:59:50.967Z,2.71
2023-11-22T05:02:23.756Z,2.74
2023-11-22T05:04:55.821Z,2.76
2023-11-22T05:07:27.960Z,2.64
2023-11-22T05:10:00.050Z,2.66
2023-11-22T05:12:32.310Z,2.57
2023-11-22T05:15:04.784Z,2.65
2023-11-22T05:17:37.414Z,2.64
2023-11-22T05:20:13.202Z,2.65
2023-11-22T05:22:45.339Z,2.66
2023-11-22T05:25:18.535Z,2.62
2023-11-22T05:27:51.884Z,2.66
2023-11-22T05:30:23.948Z,2.67
2023-11-22T05:32:56.047Z,2.55
2023-11-22T05:35:28.077Z,2.58
2023-11-22T05:38:00.169Z,2.63
2023-11-22T05:40:32.536Z,2.53
2023-11-22T05:43:04.953Z,2.46
2023-11-22T05:45:37.036Z,2.54
2023-11-22T05:48:09.254Z,2.57
2023-11-22T05:50:41.707Z,2.59
2023-11-22T05:53:20.368Z,2.54
2023-11-22T05:55:54.042Z,2.49
2023-11-22T05:58:26.142Z,2.47
2023-11-22T06:00:58.905Z,2.48
2023-11-22T06:03:31.270Z,2.43
2023-11-22T06:06:04.252Z,2.36
2023-11-22T06:08:36.843Z,2.31
2023-11-22T06:11:08.912Z,2.29
2023-11-22T06:13:40.996Z,2.33
2023-11-22T06:16:13.782Z,2.36
2023-11-22T06:18:45.935Z,2.29
2023-11-22T06:21:18.499Z,2.30
2023-11-22T06:23:51.126Z,2.30
2023-11-22T06:26:24.030Z,2.22
2023-11-22T06:28:57.017Z,2.23
2023-11-22T06:31:30.358Z,2.27
2023-11-22T06:34:04.276Z,2.30
2023-11-22T06:36:37.407Z,2.33
2023-11-22T06:39:10.453Z,2.32
2023-11-22T06:41:46.096Z,2.31
2023-11-22T06:44:19.771Z,2.35
2023-11-22T06:46:51.949Z,2.29
2023-11-22T06:49:24.136Z,2.38
2023-11-22T06:51:56.180Z,2.41
2023-11-22T06:54:28.369Z,2.41
2023-11-22T06:57:00.479Z,2.44
2023-11-22T06:59:33.088Z,2.46
2023-11-22T07:02:05.541Z,2.46
2023-11-22T07:04:38.398Z,2.45
2023-11-22T07:07:12.401Z,2.47
2023-11-22T07:09:47.348Z,2.49
2023-11-22T07:12:20.302Z,2.43
2023-11-22T07:14:52.309Z,2.50
2023-11-22T07:17:24.628Z,2.49
2023-11-22T07:19:58.444Z,2.43
2023-11-22T07:22:31.709Z,2.51
2023-11-22T07:25:04.770Z,2.50
2023-11-22T07:27:36.988Z,2.51
2023-11-22T07:30:14.127Z,2.48
2023-11-22T07:32:46.390Z,2.43
2023-11-22T07:35:21.217Z,2.57
2023-11-22T07:37:53.427Z,2.62
2023-11-22T07:40:25.456Z,2.60
2023-11-22T07:42:57.606Z,2.59
2023-11-22T07:45:29.553Z,2.56
2023-11-22T07:48:01.935Z,2.55
2023-11-22T07:50:34.593Z,2.59
2023-11-22T07:53:06.696Z,2.65
2023-11-22T07:55:39.156Z,2.66
2023-11-22T07:58:12.195Z,2.70
2023-11-22T08:00:46.838Z,2.72
2023-11-22T08:03:19.812Z,2.69
2023-11-22T08:05:55.064Z,2.69
2023-11-22T08:08:27.963Z,2.75
2023-11-22T08:11:00.027Z,2.81
2023-11-22T08:13:32.459Z,2.82
2023-11-22T08:16:04.684Z,2.78
2023-11-22T08:18:36.918Z,2.86
2023-11-22T08:21:09.473Z,2.83
2023-11-22T08:23:41.660Z,2.96
2023-11-22T08:26:13.887Z,3.00
2023-11-22T08:28:46.241Z,3.05
2023-11-22T08:31:18.835Z,3.11
2023-11-22T08:33:51.089Z,3.11
2023-11-22T08:36:24.716Z,3.15
2023-11-22T08:38:56.775Z,3.17
2023-11-22T08:41:30.264Z,3.22
2023-11-22T08:44:02.319Z,3.27
2023-11-22T08:46:34.475Z,3.32
2023-11-22T08:49:07.709Z,3.35
2023-11-22T08:51:40.554Z,3.37
2023-11-22T08:54:12.798Z,3.24
2023-11-22T08:56:44.781Z,3.40
2023-11-22T08:59:17.990Z,3.36
2023-11-22T09:01:50.204Z,3.53
2023-11-22T09:04:25.538Z,3.61
2023-11-22T09:06:57.811Z,3.65
2023-11-22T09:09:32.280Z,3.70
2023-11-22T09:12:03.193Z,3.78
2023-11-22T09:14:35.285Z,3.81
2023-11-22T09:17:08.243Z,3.83
2023-11-22T09:19:40.403Z,3.90
2023-11-22T09:22:14.410Z,3.93
2023-11-22T09:24:47.066Z,3.99
2023-11-22T09:27:19.464Z,4.05
2023-11-22T09:29:51.824Z,4.11
2023-11-22T09:32:24.774Z,4.07
2023-11-22T09:34:59.265Z,4.12
2023-11-22T09:37:30.893Z,4.26
2023-11-22T09:40:04.947Z,4.29
2023-11-22T09:42:36.518Z,4.34
2023-11-22T09:45:10.321Z,4.41
2023-11-22T09:47:42.662Z,4.47
2023-11-22T09:50:20.604Z,4.48
2023-11-22T09:52:54.806Z,4.51
2023-11-22T09:55:31.155Z,4.58
2023-11-22T09:58:05.174Z,4.57
2023-11-22T10:00:37.892Z,4.66
2023-11-22T10:03:14.272Z,4.69
2023-11-22T10:05:46.979Z,4.79
2023-11-22T10:08:20.070Z,4.85
2023-11-22T10:10:55.283Z,4.86
2023-11-22T10:13:27.983Z,4.90
2023-11-22T10:16:13.379Z,4.94
2023-11-22T10:18:47.636Z,5.01
2023-11-22T10:21:29.465Z,5.08
2023-11-22T10:24:05.053Z,5.13
2023-11-22T10:26:38.312Z,5.14
2023-11-22T10:29:10.458Z,5.22
2023-11-22T10:31:43.649Z,5.23
2023-11-22T10:34:16.094Z,5.22
2023-11-22T10:36:49.401Z,5.18
2023-11-22T10:39:24.358Z,5.33
2023-11-22T10:41:56.855Z,5.43
2023-11-22T10:44:28.877Z,5.44
2023-11-22T10:47:02.252Z,5.47
2023-11-22T10:49:34.385Z,5.57
2023-11-22T10:52:10.172Z,5.59
2023-11-22T10:54:47.138Z,5.60
2023-11-22T10:57:21.337Z,5.68
2023-11-22T10:59:57.533Z,5.74
2023-11-22T11:02:30.677Z,5.85
2023-11-22T11:05:17.177Z,5.91
2023-11-22T11:08:11.716Z,5.96
2023-11-22T11:10:44.946Z,6.02
2023-11-22T11:13:17.937Z,6.09
2023-11-22T11:15:50.361Z,6.15
2023-11-22T11:18:23.200Z,6.17
2023-11-22T11:20:57.474Z,6.22
2023-11-22T11:23:30.604Z,6.30
2023-11-22T11:26:12.532Z,6.28
2023-11-22T11:28:48.684Z,6.27
2023-11-22T11:31:24.447Z,6.26
2023-11-22T11:34:00.482Z,6.31
2023-11-22T11:36:33.859Z,6.30
2023-11-22T11:39:12.145Z,6.40
2023-11-22T11:41:45.423Z,6.44
2023-11-22T11:44:18.222Z,6.44
2023-11-22T11:46:53.835Z,6.46
2023-11-22T11:49:26.185Z,6.44
2023-11-22T11:51:58.197Z,6.58
2023-11-22T11:54:31.208Z,6.59
2023-11-22T11:57:04.046Z,6.60
2023-11-22T11:59:37.265Z,6.43
2023-11-22T12:02:09.581Z,6.36
2023-11-22T12:04:45.024Z,6.55
2023-11-22T12:07:17.495Z,6.51
2023-11-22T12:09:49.670Z,6.58
2023-11-22T12:12:22.325Z,6.52
2023-11-22T12:14:54.348Z,6.58
2023-11-22T12:17:27.697Z,6.64
2023-11-22T12:20:16.360Z,6.69
2023-11-22T12:22:49.073Z,6.68
2023-11-22T12:25:22.298Z,6.74
2023-11-22T12:27:57.799Z,6.70
2023-11-22T12:30:35.192Z,6.65
2023-11-22T12:33:09.593Z,6.60
2023-11-22T12:35:42.254Z,6.60
2023-11-22T12:38:14.601Z,6.63
2023-11-22T12:40:49.926Z,6.50
2023-11-22T12:43:22.004Z,6.60
2023-11-22T12:46:03.021Z,6.66
2023-11-22T12:48:37.030Z,6.59
2023-11-22T12:51:18.616Z,6.64
2023-11-22T12:53:51.541Z,6.62
2023-11-22T12:56:23.932Z,6.54
2023-11-22T12:58:56.015Z,6.56
2023-11-22T13:01:29.297Z,6.51
2023-11-22T13:04:01.542Z,6.46
2023-11-22T13:06:34.039Z,6.51
2023-11-22T13:09:06.480Z,6.33
2023-11-22T13:11:39.000Z,6.41
2023-11-22T13:14:11.192Z,6.41
2023-11-22T13:16:44.212Z,6.40
2023-11-22T13:19:16.495Z,6.40
2023-11-22T13:21:48.992Z,6.40
2023-11-22T13:24:21.968Z,6.36
2023-11-22T13:26:54.000Z,6.22
2023-11-22T13:29:27.272Z,6.17
2023-11-22T13:32:00.568Z,6.16
2023-11-22T13:34:32.591Z,6.17
2023-11-22T13:37:05.842Z,6.15
2023-11-22T13:39:37.944Z,6.11
2023-11-22T13:42:10.189Z,6.10
2023-11-22T13:44:43.363Z,6.12
2023-11-22T13:47:16.054Z,5.96
2023-11-22T13:49:48.269Z,6.00
2023-11-22T13:52:20.241Z,5.97
2023-11-22T13:54:56.612Z,5.97
2023-11-22T13:57:28.628Z,5.94
2023-11-22T14:00:01.018Z,5.90
2023-11-22T14:02:33.314Z,5.89
2023-11-22T14:05:08.722Z,5.88
2023-11-22T14:07:41.211Z,5.85
2023-11-22T14:10:17.435Z,5.81
2023-11-22T14:12:49.456Z,5.76
2023-11-22T14:15:21.991Z,5.62
2023-11-22T14:17:53.990Z,5.59
2023-11-22T14:20:27.062Z,5.56
2023-11-22T14:22:59.140Z,5.54
2023-11-22T14:25:32.603Z,5.51
2023-11-22T14:28:05.384Z,5.36
2023-11-22T14:30:38.319Z,5.34
2023-11-22T14:33:11.092Z,5.35
2023-11-22T14:35:45.419Z,5.32
2023-11-22T14:38:19.012Z,5.27
2023-11-22T14:40:51.050Z,5.17
2023-11-22T14:43:23.721Z,5.14
2023-11-22T14:45:56.815Z,4.90
2023-11-22T14:48:28.943Z,4.86
2023-11-22T14:51:03.473Z,4.94
2023-11-22T14:53:35.546Z,4.98
2023-11-22T14:56:08.911Z,4.97
2023-11-22T14:58:41.499Z,4.97
2023-11-22T15:01:13.695Z,4.91
2023-11-22T15:03:46.043Z,4.89
2023-11-22T15:06:18.239Z,4.88
2023-11-22T15:08:52.081Z,4.84
2023-11-22T15:11:24.531Z,4.81
2023-11-22T15:13:56.647Z,4.78
2023-11-22T15:16:29.037Z,4.76
2023-11-22T15:19:03.258Z,4.64
2023-11-22T15:21:35.822Z,4.67
2023-11-22T15:24:09.063Z,4.65
2023-11-22T15:26:41.177Z,4.61
2023-11-22T15:29:13.318Z,4.58
2023-11-22T15:31:45.656Z,4.53
2023-11-22T15:34:17.936Z,4.32
2023-11-22T15:36:50.598Z,3.94
2023-11-22T15:39:23.462Z,3.81
2023-11-22T15:41:55.659Z,3.95
2023-11-22T15:44:27.988Z,3.99
2023-11-22T15:47:00.210Z,3.91
2023-11-22T15:49:32.414Z,3.91
2023-11-22T15:52:04.599Z,4.00
2023-11-22T15:54:36.578Z,3.98
2023-11-22T15:57:09.965Z,4.03
2023-11-22T15:59:42.360Z,4.10
2023-11-22T16:02:14.615Z,4.11
2023-11-22T16:04:47.409Z,4.09
2023-11-22T16:07:19.757Z,4.00
2023-11-22T16:09:52.654Z,3.85
2023-11-22T16:12:24.580Z,3.93
2023-11-22T16:14:56.765Z,3.94
2023-11-22T16:17:28.835Z,4.08
2023-11-22T16:20:01.974Z,4.13
2023-11-22T16:22:34.015Z,4.18
2023-11-22T16:25:07.096Z,4.19
2023-11-22T16:27:39.219Z,4.20
2023-11-22T16:30:12.001Z,4.18
2023-11-22T16:32:44.407Z,4.18
2023-11-22T16:35:17.458Z,4.13
2023-11-22T16:37:49.772Z,4.20
2023-11-22T16:40:22.378Z,4.11
2023-11-22T16:42:54.453Z,4.18
2023-11-22T16:45:27.284Z,4.17
2023-11-22T16:48:00.136Z,4.16
2023-11-22T16:50:32.364Z,4.15
2023-11-22T16:53:04.962Z,4.14
2023-11-22T16:55:37.044Z,4.13
2023-11-22T16:58:09.183Z,4.11
2023-11-22T17:00:41.751Z,4.13
2023-11-22T17:03:19.518Z,4.12
2023-11-22T17:05:55.147Z,4.12
2023-11-22T17:08:27.160Z,4.10
2023-11-22T17:10:59.226Z,4.10
2023-11-22T17:13:31.975Z,4.08
2023-11-22T17:16:04.138Z,4.07
2023-11-22T17:18:36.286Z,4.08
2023-11-22T17:21:08.948Z,4.08
2023-11-22T17:23:40.938Z,4.05
2023-11-22T17:26:13.554Z,4.03
2023-11-22T17:28:45.895Z,4.02
2023-11-22T17:31:19.755Z,3.95
2023-11-22T17:33:52.278Z,4.04
2023-11-22T17:36:24.307Z,4.03
2023-11-22T17:38:57.882Z,4.02
2023-11-22T17:41:34.045Z,4.01
2023-11-22T17:44:08.416Z,4.01
2023-11-22T17:46:43.231Z,4.00
2023-11-22T17:49:15.799Z,4.01
2023-11-22T17:51:55.098Z,3.91
2023-11-22T17:54:27.070Z,3.97
2023-11-22T17:56:59.085Z,3.97
2023-11-22T17:59:31.452Z,3.96
2023-11-22T18:02:03.834Z,3.98
2023-11-22T18:04:36.505Z,3.96
2023-11-22T18:07:14.853Z,3.94
2023-11-22T18:09:47.925Z,3.95
2023-11-22T18:12:21.128Z,3.94
2023-11-22T18:14:53.267Z,3.97
2023-11-22T18:17:25.526Z,3.96
2023-11-22T18:19:59.045Z,3.83
2023-11-22T18:22:31.161Z,3.94
2023-11-22T18:25:03.413Z,3.93
2023-11-22T18:27:35.426Z,3.93
2023-11-22T18:30:11.423Z,3.94
2023-11-22T18:32:44.211Z,3.94
2023-11-22T18:35:16.630Z,3.95
2023-11-22T18:37:49.335Z,3.96
2023-11-22T18:40:22.320Z,3.96
2023-11-22T18:42:54.820Z,3.91
2023-11-22T18:45:26.823Z,3.93
2023-11-22T18:47:59.044Z,3.94
2023-11-22T18:50:31.406Z,3.91
2023-11-22T18:53:03.573Z,3.97
2023-11-22T18:55:35.667Z,3.96
2023-11-22T18:58:09.181Z,3.98
2023-11-22T19:00:41.266Z,4.00
2023-11-22T19:03:13.324Z,4.00
2023-11-22T19:05:45.497Z,3.96
2023-11-22T19:08:17.623Z,3.95
2023-11-22T19:10:49.673Z,4.01
2023-11-22T19:13:22.717Z,3.92
2023-11-22T19:15:56.155Z,3.88
2023-11-22T19:18:29.544Z,3.84
2023-11-22T19:21:04.536Z,3.82
2023-11-22T19:23:38.620Z,3.84
2023-11-22T19:26:10.954Z,3.80
2023-11-22T19:28:44.399Z,3.53
2023-11-22T19:31:17.064Z,3.54
2023-11-22T19:33:49.597Z,3.70
2023-11-22T19:36:26.720Z,3.48
2023-11-22T19:38:59.068Z,3.68
2023-11-22T19:41:32.109Z,3.64
2023-11-22T19:44:04.564Z,3.32
2023-11-22T19:46:36.577Z,3.38
2023-11-22T19:49:11.098Z,3.34
2023-11-22T19:51:43.865Z,3.53
2023-11-22T19:54:16.078Z,3.29
2023-11-22T19:56:48.529Z,3.42
2023-11-22T19:59:20.641Z,3.31
2023-11-22T20:01:53.894Z,3.15
2023-11-22T20:04:26.335Z,3.22
2023-11-22T20:06:58.455Z,3.18
2023-11-22T20:09:32.083Z,3.02
2023-11-22T20:12:04.580Z,3.02
2023-11-22T20:14:36.800Z,3.06
2023-11-22T20:17:10.642Z,2.84
2023-11-22T20:19:42.762Z,2.97
2023-11-22T20:22:14.925Z,3.15
2023-11-22T20:24:47.919Z,3.05
2023-11-22T20:27:20.193Z,3.00
2023-11-22T20:29:53.289Z,2.78
2023-11-22T20:32:26.263Z,2.73
2023-11-22T20:34:58.567Z,2.69
2023-11-22T20:37:30.713Z,2.95
2023-11-22T20:40:04.356Z,2.92
2023-11-22T20:42:36.455Z,2.62
2023-11-22T20:45:12.074Z,2.79
2023-11-22T20:47:46.795Z,2.69
2023-11-22T20:50:19.219Z,2.65
2023-11-22T20:52:51.341Z,2.78
2023-11-22T20:55:23.780Z,2.63
2023-11-22T20:57:56.767Z,2.53
2023-11-22T21:00:31.700Z,2.50
2023-11-22T21:03:04.398Z,2.25
2023-11-22T21:05:36.910Z,2.11
2023-11-22T21:08:16.498Z,2.20
2023-11-22T21:10:51.458Z,2.27
2023-11-22T21:13:23.450Z,2.35
2023-11-22T21:15:56.373Z,2.23
2023-11-22T21:18:28.940Z,2.04
2023-11-22T21:21:01.304Z,2.26
2023-11-22T21:23:34.610Z,2.40
2023-11-22T21:26:08.356Z,2.17
2023-11-22T21:28:40.398Z,1.91
2023-11-22T21:31:19.329Z,1.83
2023-11-22T21:33:52.228Z,1.91
2023-11-22T21:36:24.449Z,1.91
2023-11-22T21:38:56.831Z,2.13
2023-11-22T21:41:28.867Z,2.11
2023-11-22T21:44:00.930Z,2.19
2023-11-22T21:46:34.657Z,2.27
2023-11-22T21:49:07.930Z,2.11
2023-11-22T21:51:39.989Z,1.96
2023-11-22T21:54:12.268Z,1.90
2023-11-22T21:56:47.807Z,2.16
2023-11-22T21:59:20.366Z,2.03
2023-11-22T22:01:52.810Z,2.07
2023-11-22T22:04:25.604Z,2.22
2023-11-22T22:06:57.683Z,2.57
2023-11-22T22:09:30.034Z,2.21
2023-11-22T22:12:02.232Z,2.34
2023-11-22T22:14:34.478Z,2.28
2023-11-22T22:17:07.241Z,2.35
2023-11-22T22:19:39.588Z,2.42
2023-11-22T22:22:11.768Z,1.99
2023-11-22T22:24:43.970Z,1.91
2023-11-22T22:27:34.760Z,1.69
2023-11-22T22:30:09.506Z,1.66
2023-11-22T22:32:41.891Z,2.07
2023-11-22T22:35:13.936Z,2.21
2023-11-22T22:37:47.548Z,2.26
2023-11-22T22:40:19.676Z,2.09
2023-11-22T22:42:51.781Z,1.91
2023-11-22T22:45:24.464Z,2.24
2023-11-22T22:47:56.911Z,1.78
2023-11-22T22:50:29.072Z,1.70
2023-11-22T22:53:01.639Z,1.83
2023-11-22T22:55:33.695Z,1.90
2023-11-22T22:58:05.738Z,2.03
2023-11-22T23:00:40.976Z,1.76
2023-11-22T23:03:13.952Z,1.83
2023-11-22T23:05:46.448Z,1.71
2023-11-22T23:08:19.238Z,1.82
2023-11-22T23:10:52.184Z,1.85
2023-11-22T23:13:24.242Z,1.57
2023-11-22T23:15:56.263Z,1.89
2023-11-22T23:18:28.646Z,1.91
2023-11-22T23:21:01.073Z,1.70
2023-11-22T23:23:33.185Z,1.96
2023-11-22T23:26:06.542Z,1.99
2023-11-22T23:28:38.813Z,1.84
2023-11-22T23:31:11.644Z,1.83
2023-11-22T23:33:43.871Z,1.65
2023-11-22T23:36:16.465Z,1.72
2023-11-22T23:38:48.545Z,1.82
2023-11-22T23:41:20.632Z,1.64
2023-11-22T23:43:52.674Z,1.70
2023-11-22T23:46:25.308Z,1.61
2023-11-22T23:48:57.436Z,1.37
2023-11-22T23:51:29.890Z,1.55
2023-11-22T23:54:02.727Z,1.53
2023-11-22T23:56:36.358Z,1.50
2023-11-22T23:59:09.442Z,1.60
